Aviation Digital Data Service (ADDS)

Output produced by METARs form (1651 UTC 23 September 2020)
found at http://aviationweather.gov/metar/data/
 
KTYR 231143Z 2312/2412 02006KT 4SM BR OVC002 
     TEMPO 2312/2315 1/2SM DZ FG OVC001 
     FM231500 02009KT 1/4SM FG OVC004 
     FM231800 02011KT 4SM BR OVC009 
     FM232100 02007KT P6SM OVC015